sensor_id;sensor_type;location;lat;lon;timestamp;P1;durP1;ratioP1;P2;durP2;ratioP2
73276;SDS011;61501;43.316;5.372;2023-05-21T00:00:06;16.05;;;14.75;;
73276;SDS011;61501;43.316;5.372;2023-05-21T00:02:41;15.48;;;14.00;;
73276;SDS011;61501;43.316;5.372;2023-05-21T00:05:06;16.05;;;14.85;;
73276;SDS011;61501;43.316;5.372;2023-05-21T00:07:38;16.00;;;14.75;;
73276;SDS011;61501;43.316;5.372;2023-05-21T00:10:07;14.88;;;13.77;;
73276;SDS011;61501;43.316;5.372;2023-05-21T00:12:33;15.90;;;14.70;;
73276;SDS011;61501;43.316;5.372;2023-05-21T00:14:59;16.48;;;15.10;;
73276;SDS011;61501;43.316;5.372;2023-05-21T00:17:25;15.43;;;14.13;;
73276;SDS011;61501;43.316;5.372;2023-05-21T00:19:57;16.30;;;14.90;;
73276;SDS011;61501;43.316;5.372;2023-05-21T00:22:24;14.98;;;13.65;;
73276;SDS011;61501;43.316;5.372;2023-05-21T00:24:55;13.57;;;12.38;;
73276;SDS011;61501;43.316;5.372;2023-05-21T00:27:21;13.55;;;12.50;;
73276;SDS011;61501;43.316;5.372;2023-05-21T00:29:47;13.40;;;12.32;;
73276;SDS011;61501;43.316;5.372;2023-05-21T00:32:12;13.38;;;12.38;;
73276;SDS011;61501;43.316;5.372;2023-05-21T00:34:41;12.77;;;11.75;;
73276;SDS011;61501;43.316;5.372;2023-05-21T00:40:13;14.07;;;12.82;;
73276;SDS011;61501;43.316;5.372;2023-05-21T00:42:48;11.93;;;10.93;;
73276;SDS011;61501;43.316;5.372;2023-05-21T00:45:17;12.02;;;10.95;;
73276;SDS011;61501;43.316;5.372;2023-05-21T00:47:48;11.52;;;10.60;;
73276;SDS011;61501;43.316;5.372;2023-05-21T00:50:18;11.20;;;10.40;;
73276;SDS011;61501;43.316;5.372;2023-05-21T00:52:45;11.20;;;10.38;;
73276;SDS011;61501;43.316;5.372;2023-05-21T00:55:13;12.23;;;11.18;;
73276;SDS011;61501;43.316;5.372;2023-05-21T00:57:39;12.52;;;11.48;;
73276;SDS011;61501;43.316;5.372;2023-05-21T01:00:06;13.05;;;11.98;;
73276;SDS011;61501;43.316;5.372;2023-05-21T01:02:34;13.00;;;11.80;;
73276;SDS011;61501;43.316;5.372;2023-05-21T01:05:12;13.63;;;12.52;;
73276;SDS011;61501;43.316;5.372;2023-05-21T01:07:39;12.65;;;11.57;;
73276;SDS011;61501;43.316;5.372;2023-05-21T01:10:12;12.43;;;11.43;;
73276;SDS011;61501;43.316;5.372;2023-05-21T01:12:49;12.60;;;11.60;;
73276;SDS011;61501;43.316;5.372;2023-05-21T01:15:16;13.60;;;12.57;;
73276;SDS011;61501;43.316;5.372;2023-05-21T01:17:45;12.65;;;11.73;;
73276;SDS011;61501;43.316;5.372;2023-05-21T01:20:12;13.30;;;12.15;;
73276;SDS011;61501;43.316;5.372;2023-05-21T01:25:22;12.73;;;11.73;;
73276;SDS011;61501;43.316;5.372;2023-05-21T01:27:56;14.05;;;12.82;;
73276;SDS011;61501;43.316;5.372;2023-05-21T01:30:25;11.90;;;10.90;;
73276;SDS011;61501;43.316;5.372;2023-05-21T01:38:42;13.73;;;12.43;;
73276;SDS011;61501;43.316;5.372;2023-05-21T01:41:51;12.65;;;11.63;;
73276;SDS011;61501;43.316;5.372;2023-05-21T01:44:21;12.82;;;11.73;;
73276;SDS011;61501;43.316;5.372;2023-05-21T01:47:03;11.98;;;11.07;;
73276;SDS011;61501;43.316;5.372;2023-05-21T01:49:37;11.75;;;10.75;;
73276;SDS011;61501;43.316;5.372;2023-05-21T01:52:27;12.02;;;11.05;;
73276;SDS011;61501;43.316;5.372;2023-05-21T01:54:59;13.90;;;12.57;;
73276;SDS011;61501;43.316;5.372;2023-05-21T01:57:42;12.40;;;11.40;;
73276;SDS011;61501;43.316;5.372;2023-05-21T02:00:11;13.93;;;12.82;;
73276;SDS011;61501;43.316;5.372;2023-05-21T02:02:38;12.98;;;11.85;;
73276;SDS011;61501;43.316;5.372;2023-05-21T02:05:03;12.60;;;11.70;;
73276;SDS011;61501;43.316;5.372;2023-05-21T02:07:48;13.27;;;12.27;;
73276;SDS011;61501;43.316;5.372;2023-05-21T02:10:35;13.30;;;12.32;;
73276;SDS011;61501;43.316;5.372;2023-05-21T02:13:01;11.73;;;10.82;;
73276;SDS011;61501;43.316;5.372;2023-05-21T02:15:27;12.77;;;11.77;;
73276;SDS011;61501;43.316;5.372;2023-05-21T02:18:01;12.90;;;11.80;;
73276;SDS011;61501;43.316;5.372;2023-05-21T02:20:56;12.75;;;11.55;;
73276;SDS011;61501;43.316;5.372;2023-05-21T02:23:57;12.25;;;11.35;;
73276;SDS011;61501;43.316;5.372;2023-05-21T02:26:31;11.65;;;10.80;;
73276;SDS011;61501;43.316;5.372;2023-05-21T02:29:00;13.20;;;12.00;;
73276;SDS011;61501;43.316;5.372;2023-05-21T02:31:47;12.30;;;11.40;;
73276;SDS011;61501;43.316;5.372;2023-05-21T02:34:14;12.27;;;11.27;;
73276;SDS011;61501;43.316;5.372;2023-05-21T02:36:48;12.13;;;11.23;;
73276;SDS011;61501;43.316;5.372;2023-05-21T02:39:18;11.93;;;10.93;;
73276;SDS011;61501;43.316;5.372;2023-05-21T02:41:44;11.75;;;10.85;;
73276;SDS011;61501;43.316;5.372;2023-05-21T02:44:13;12.25;;;11.32;;
73276;SDS011;61501;43.316;5.372;2023-05-21T02:46:45;12.15;;;11.27;;
73276;SDS011;61501;43.316;5.372;2023-05-21T02:49:14;11.88;;;10.98;;
73276;SDS011;61501;43.316;5.372;2023-05-21T02:51:40;13.52;;;12.25;;
73276;SDS011;61501;43.316;5.372;2023-05-21T02:54:08;12.43;;;11.45;;
73276;SDS011;61501;43.316;5.372;2023-05-21T02:56:54;12.82;;;11.75;;
73276;SDS011;61501;43.316;5.372;2023-05-21T02:59:20;13.75;;;12.75;;
73276;SDS011;61501;43.316;5.372;2023-05-21T03:01:46;12.45;;;11.50;;
73276;SDS011;61501;43.316;5.372;2023-05-21T03:04:11;13.15;;;12.13;;
73276;SDS011;61501;43.316;5.372;2023-05-21T03:06:41;13.40;;;12.30;;
73276;SDS011;61501;43.316;5.372;2023-05-21T03:09:15;13.82;;;12.75;;
73276;SDS011;61501;43.316;5.372;2023-05-21T03:11:44;14.30;;;13.10;;
73276;SDS011;61501;43.316;5.372;2023-05-21T03:14:13;14.05;;;12.95;;
73276;SDS011;61501;43.316;5.372;2023-05-21T03:16:38;12.32;;;11.43;;
73276;SDS011;61501;43.316;5.372;2023-05-21T03:19:07;11.52;;;10.63;;
73276;SDS011;61501;43.316;5.372;2023-05-21T03:21:33;13.50;;;12.35;;
73276;SDS011;61501;43.316;5.372;2023-05-21T03:24:00;12.80;;;11.80;;
73276;SDS011;61501;43.316;5.372;2023-05-21T03:26:27;11.30;;;10.50;;
73276;SDS011;61501;43.316;5.372;2023-05-21T03:34:33;13.32;;;12.20;;
73276;SDS011;61501;43.316;5.372;2023-05-21T03:36:59;13.63;;;12.63;;
73276;SDS011;61501;43.316;5.372;2023-05-21T03:39:25;13.80;;;12.80;;
73276;SDS011;61501;43.316;5.372;2023-05-21T03:41:56;14.55;;;13.35;;
73276;SDS011;61501;43.316;5.372;2023-05-21T03:44:31;13.45;;;12.32;;
73276;SDS011;61501;43.316;5.372;2023-05-21T03:47:02;15.57;;;14.27;;
73276;SDS011;61501;43.316;5.372;2023-05-21T03:49:54;14.05;;;12.85;;
73276;SDS011;61501;43.316;5.372;2023-05-21T03:52:23;13.85;;;12.85;;
73276;SDS011;61501;43.316;5.372;2023-05-21T03:54:49;13.07;;;12.02;;
73276;SDS011;61501;43.316;5.372;2023-05-21T03:57:17;14.02;;;13.02;;
73276;SDS011;61501;43.316;5.372;2023-05-21T03:59:46;13.88;;;12.77;;
73276;SDS011;61501;43.316;5.372;2023-05-21T04:02:12;13.57;;;12.52;;
73276;SDS011;61501;43.316;5.372;2023-05-21T04:04:40;14.75;;;13.65;;
73276;SDS011;61501;43.316;5.372;2023-05-21T04:07:10;15.23;;;13.95;;
73276;SDS011;61501;43.316;5.372;2023-05-21T04:09:49;13.90;;;12.80;;
73276;SDS011;61501;43.316;5.372;2023-05-21T04:12:15;13.68;;;12.75;;
73276;SDS011;61501;43.316;5.372;2023-05-21T04:14:43;13.57;;;12.57;;
73276;SDS011;61501;43.316;5.372;2023-05-21T04:17:11;13.15;;;12.15;;
73276;SDS011;61501;43.316;5.372;2023-05-21T04:19:37;12.98;;;12.07;;
73276;SDS011;61501;43.316;5.372;2023-05-21T04:22:21;13.10;;;12.20;;
73276;SDS011;61501;43.316;5.372;2023-05-21T04:24:49;13.13;;;12.23;;
73276;SDS011;61501;43.316;5.372;2023-05-21T04:27:15;12.18;;;11.23;;
73276;SDS011;61501;43.316;5.372;2023-05-21T04:29:40;12.75;;;11.65;;
73276;SDS011;61501;43.316;5.372;2023-05-21T04:32:07;12.60;;;11.50;;
73276;SDS011;61501;43.316;5.372;2023-05-21T04:34:45;11.95;;;10.63;;
73276;SDS011;61501;43.316;5.372;2023-05-21T04:37:13;12.05;;;11.10;;
73276;SDS011;61501;43.316;5.372;2023-05-21T04:39:41;12.00;;;11.10;;
73276;SDS011;61501;43.316;5.372;2023-05-21T04:42:07;11.85;;;11.00;;
73276;SDS011;61501;43.316;5.372;2023-05-21T04:44:35;12.40;;;11.50;;
73276;SDS011;61501;43.316;5.372;2023-05-21T04:47:02;13.23;;;12.05;;
73276;SDS011;61501;43.316;5.372;2023-05-21T04:49:27;13.05;;;12.05;;
73276;SDS011;61501;43.316;5.372;2023-05-21T04:51:54;12.45;;;11.55;;
73276;SDS011;61501;43.316;5.372;2023-05-21T04:54:24;12.02;;;11.05;;
73276;SDS011;61501;43.316;5.372;2023-05-21T04:56:53;12.27;;;11.27;;
73276;SDS011;61501;43.316;5.372;2023-05-21T04:59:37;13.20;;;12.20;;
73276;SDS011;61501;43.316;5.372;2023-05-21T05:02:09;13.68;;;12.68;;
73276;SDS011;61501;43.316;5.372;2023-05-21T05:04:34;13.30;;;12.30;;
73276;SDS011;61501;43.316;5.372;2023-05-21T05:07:06;13.82;;;12.77;;
73276;SDS011;61501;43.316;5.372;2023-05-21T05:12:24;13.60;;;12.60;;
73276;SDS011;61501;43.316;5.372;2023-05-21T05:14:49;14.00;;;12.80;;
73276;SDS011;61501;43.316;5.372;2023-05-21T05:17:18;13.65;;;12.63;;
73276;SDS011;61501;43.316;5.372;2023-05-21T05:19:44;13.40;;;12.23;;
73276;SDS011;61501;43.316;5.372;2023-05-21T05:22:12;14.77;;;13.68;;
73276;SDS011;61501;43.316;5.372;2023-05-21T05:24:38;13.25;;;12.25;;
73276;SDS011;61501;43.316;5.372;2023-05-21T05:27:06;13.07;;;12.05;;
73276;SDS011;61501;43.316;5.372;2023-05-21T05:29:38;13.88;;;12.68;;
73276;SDS011;61501;43.316;5.372;2023-05-21T05:35:30;14.35;;;13.20;;
73276;SDS011;61501;43.316;5.372;2023-05-21T05:37:56;13.00;;;11.95;;
73276;SDS011;61501;43.316;5.372;2023-05-21T05:40:22;13.82;;;12.70;;
73276;SDS011;61501;43.316;5.372;2023-05-21T05:42:50;12.65;;;11.63;;
73276;SDS011;61501;43.316;5.372;2023-05-21T05:45:46;14.02;;;12.93;;
73276;SDS011;61501;43.316;5.372;2023-05-21T05:48:41;12.77;;;11.57;;
73276;SDS011;61501;43.316;5.372;2023-05-21T05:51:13;11.93;;;11.02;;
73276;SDS011;61501;43.316;5.372;2023-05-21T05:53:39;13.43;;;12.25;;
73276;SDS011;61501;43.316;5.372;2023-05-21T05:56:14;13.07;;;11.85;;
73276;SDS011;61501;43.316;5.372;2023-05-21T05:58:41;12.70;;;11.60;;
73276;SDS011;61501;43.316;5.372;2023-05-21T06:01:11;12.50;;;11.50;;
73276;SDS011;61501;43.316;5.372;2023-05-21T06:03:37;12.73;;;11.82;;
73276;SDS011;61501;43.316;5.372;2023-05-21T06:06:05;11.15;;;10.25;;
73276;SDS011;61501;43.316;5.372;2023-05-21T06:08:31;11.40;;;10.38;;
73276;SDS011;61501;43.316;5.372;2023-05-21T06:11:04;12.13;;;11.13;;
73276;SDS011;61501;43.316;5.372;2023-05-21T06:14:21;11.73;;;10.73;;
73276;SDS011;61501;43.316;5.372;2023-05-21T06:16:51;11.27;;;10.38;;
73276;SDS011;61501;43.316;5.372;2023-05-21T06:19:20;11.02;;;10.13;;
73276;SDS011;61501;43.316;5.372;2023-05-21T06:21:51;9.73;;;8.93;;
73276;SDS011;61501;43.316;5.372;2023-05-21T06:24:17;8.45;;;7.85;;
73276;SDS011;61501;43.316;5.372;2023-05-21T06:26:45;8.38;;;7.68;;
73276;SDS011;61501;43.316;5.372;2023-05-21T06:29:11;8.43;;;7.72;;
73276;SDS011;61501;43.316;5.372;2023-05-21T06:31:55;7.93;;;7.32;;
73276;SDS011;61501;43.316;5.372;2023-05-21T06:34:23;7.55;;;6.95;;
73276;SDS011;61501;43.316;5.372;2023-05-21T06:36:49;6.63;;;5.82;;
73276;SDS011;61501;43.316;5.372;2023-05-21T06:39:18;7.72;;;7.13;;
73276;SDS011;61501;43.316;5.372;2023-05-21T06:41:57;8.98;;;8.27;;
73276;SDS011;61501;43.316;5.372;2023-05-21T06:44:41;9.15;;;8.32;;
73276;SDS011;61501;43.316;5.372;2023-05-21T06:47:37;9.00;;;8.20;;
73276;SDS011;61501;43.316;5.372;2023-05-21T06:50:08;9.05;;;8.32;;
73276;SDS011;61501;43.316;5.372;2023-05-21T06:52:44;10.23;;;9.32;;
73276;SDS011;61501;43.316;5.372;2023-05-21T06:55:19;10.57;;;9.57;;
73276;SDS011;61501;43.316;5.372;2023-05-21T06:57:51;10.15;;;9.35;;
73276;SDS011;61501;43.316;5.372;2023-05-21T07:00:17;10.30;;;9.50;;
73276;SDS011;61501;43.316;5.372;2023-05-21T07:02:45;11.15;;;10.10;;
73276;SDS011;61501;43.316;5.372;2023-05-21T07:05:11;10.20;;;9.40;;
73276;SDS011;61501;43.316;5.372;2023-05-21T07:07:36;9.35;;;8.55;;
73276;SDS011;61501;43.316;5.372;2023-05-21T07:10:02;8.88;;;8.07;;
73276;SDS011;61501;43.316;5.372;2023-05-21T07:12:32;9.55;;;8.75;;
73276;SDS011;61501;43.316;5.372;2023-05-21T07:14:58;8.95;;;8.15;;
73276;SDS011;61501;43.316;5.372;2023-05-21T07:17:23;7.85;;;7.22;;
73276;SDS011;61501;43.316;5.372;2023-05-21T07:19:49;7.55;;;6.95;;
73276;SDS011;61501;43.316;5.372;2023-05-21T07:22:14;8.38;;;7.68;;
73276;SDS011;61501;43.316;5.372;2023-05-21T07:24:40;9.50;;;8.60;;
73276;SDS011;61501;43.316;5.372;2023-05-21T07:27:06;10.50;;;8.85;;
73276;SDS011;61501;43.316;5.372;2023-05-21T07:29:32;8.70;;;7.95;;
73276;SDS011;61501;43.316;5.372;2023-05-21T07:31:58;9.10;;;8.30;;
73276;SDS011;61501;43.316;5.372;2023-05-21T07:34:24;9.95;;;8.98;;
73276;SDS011;61501;43.316;5.372;2023-05-21T07:36:50;9.88;;;8.98;;
73276;SDS011;61501;43.316;5.372;2023-05-21T07:39:16;9.68;;;8.40;;
73276;SDS011;61501;43.316;5.372;2023-05-21T07:41:42;9.07;;;8.27;;
73276;SDS011;61501;43.316;5.372;2023-05-21T07:44:10;7.90;;;7.10;;
73276;SDS011;61501;43.316;5.372;2023-05-21T07:46:36;7.65;;;6.88;;
73276;SDS011;61501;43.316;5.372;2023-05-21T07:49:02;7.45;;;6.72;;
73276;SDS011;61501;43.316;5.372;2023-05-21T07:51:27;8.45;;;7.65;;
73276;SDS011;61501;43.316;5.372;2023-05-21T07:53:53;8.48;;;7.68;;
73276;SDS011;61501;43.316;5.372;2023-05-21T07:56:19;9.48;;;8.02;;
73276;SDS011;61501;43.316;5.372;2023-05-21T07:58:45;8.52;;;7.80;;
73276;SDS011;61501;43.316;5.372;2023-05-21T08:01:11;9.23;;;8.43;;
73276;SDS011;61501;43.316;5.372;2023-05-21T08:03:40;9.13;;;8.32;;
73276;SDS011;61501;43.316;5.372;2023-05-21T08:06:10;8.20;;;7.38;;
73276;SDS011;61501;43.316;5.372;2023-05-21T08:08:36;8.45;;;7.20;;
73276;SDS011;61501;43.316;5.372;2023-05-21T08:11:01;7.53;;;6.82;;
73276;SDS011;61501;43.316;5.372;2023-05-21T08:13:29;6.88;;;6.13;;
73276;SDS011;61501;43.316;5.372;2023-05-21T08:15:55;6.95;;;5.20;;
73276;SDS011;61501;43.316;5.372;2023-05-21T08:18:21;4.32;;;3.92;;
73276;SDS011;61501;43.316;5.372;2023-05-21T08:20:47;3.65;;;3.35;;
73276;SDS011;61501;43.316;5.372;2023-05-21T08:23:14;4.88;;;4.25;;
73276;SDS011;61501;43.316;5.372;2023-05-21T08:25:40;4.22;;;3.65;;
73276;SDS011;61501;43.316;5.372;2023-05-21T08:28:05;4.32;;;3.53;;
73276;SDS011;61501;43.316;5.372;2023-05-21T08:30:31;5.63;;;3.72;;
73276;SDS011;61501;43.316;5.372;2023-05-21T08:32:57;3.50;;;3.20;;
73276;SDS011;61501;43.316;5.372;2023-05-21T08:35:22;3.63;;;2.65;;
73276;SDS011;61501;43.316;5.372;2023-05-21T08:37:48;4.07;;;3.00;;
73276;SDS011;61501;43.316;5.372;2023-05-21T08:40:14;3.50;;;2.97;;
73276;SDS011;61501;43.316;5.372;2023-05-21T08:45:12;3.33;;;2.92;;
73276;SDS011;61501;43.316;5.372;2023-05-21T08:47:45;4.70;;;3.38;;
73276;SDS011;61501;43.316;5.372;2023-05-21T08:50:15;3.80;;;3.50;;
73276;SDS011;61501;43.316;5.372;2023-05-21T08:55:09;5.25;;;4.07;;
73276;SDS011;61501;43.316;5.372;2023-05-21T08:57:35;5.47;;;4.65;;
73276;SDS011;61501;43.316;5.372;2023-05-21T09:00:05;6.57;;;5.97;;
73276;SDS011;61501;43.316;5.372;2023-05-21T09:02:34;7.60;;;6.80;;
73276;SDS011;61501;43.316;5.372;2023-05-21T09:05:04;8.57;;;6.95;;
73276;SDS011;61501;43.316;5.372;2023-05-21T09:07:33;8.27;;;7.28;;
73276;SDS011;61501;43.316;5.372;2023-05-21T09:10:11;7.35;;;6.65;;
73276;SDS011;61501;43.316;5.372;2023-05-21T09:12:37;9.82;;;7.47;;
73276;SDS011;61501;43.316;5.372;2023-05-21T09:15:04;9.60;;;7.80;;
73276;SDS011;61501;43.316;5.372;2023-05-21T09:17:31;8.43;;;7.63;;
73276;SDS011;61501;43.316;5.372;2023-05-21T09:22:39;9.25;;;7.80;;
73276;SDS011;61501;43.316;5.372;2023-05-21T09:25:09;7.65;;;6.95;;
73276;SDS011;61501;43.316;5.372;2023-05-21T09:27:36;9.15;;;8.00;;
73276;SDS011;61501;43.316;5.372;2023-05-21T09:30:03;8.32;;;7.53;;
73276;SDS011;61501;43.316;5.372;2023-05-21T09:32:33;8.35;;;7.55;;
73276;SDS011;61501;43.316;5.372;2023-05-21T09:35:04;8.93;;;8.00;;
73276;SDS011;61501;43.316;5.372;2023-05-21T09:37:41;8.68;;;7.88;;
73276;SDS011;61501;43.316;5.372;2023-05-21T09:40:09;9.60;;;8.60;;
73276;SDS011;61501;43.316;5.372;2023-05-21T09:42:40;10.30;;;8.80;;
73276;SDS011;61501;43.316;5.372;2023-05-21T09:45:09;9.03;;;8.13;;
73276;SDS011;61501;43.316;5.372;2023-05-21T09:47:42;9.98;;;8.52;;
73276;SDS011;61501;43.316;5.372;2023-05-21T09:50:09;11.75;;;9.65;;
73276;SDS011;61501;43.316;5.372;2023-05-21T09:52:36;11.13;;;8.95;;
73276;SDS011;61501;43.316;5.372;2023-05-21T09:55:02;9.55;;;8.65;;
73276;SDS011;61501;43.316;5.372;2023-05-21T09:57:38;10.02;;;9.00;;
73276;SDS011;61501;43.316;5.372;2023-05-21T10:00:08;15.38;;;9.52;;
73276;SDS011;61501;43.316;5.372;2023-05-21T10:02:49;12.25;;;9.25;;
73276;SDS011;61501;43.316;5.372;2023-05-21T10:08:00;12.38;;;9.43;;
73276;SDS011;61501;43.316;5.372;2023-05-21T10:10:28;12.40;;;10.43;;
73276;SDS011;61501;43.316;5.372;2023-05-21T10:12:59;9.27;;;8.35;;
73276;SDS011;61501;43.316;5.372;2023-05-21T10:15:30;9.98;;;8.65;;
73276;SDS011;61501;43.316;5.372;2023-05-21T10:17:59;9.52;;;8.45;;
73276;SDS011;61501;43.316;5.372;2023-05-21T10:20:27;10.00;;;9.00;;
73276;SDS011;61501;43.316;5.372;2023-05-21T10:22:53;10.52;;;9.35;;
73276;SDS011;61501;43.316;5.372;2023-05-21T10:25:19;9.52;;;8.55;;
73276;SDS011;61501;43.316;5.372;2023-05-21T10:27:46;9.93;;;8.25;;
73276;SDS011;61501;43.316;5.372;2023-05-21T10:30:13;9.00;;;8.10;;
73276;SDS011;61501;43.316;5.372;2023-05-21T10:32:39;8.73;;;7.85;;
73276;SDS011;61501;43.316;5.372;2023-05-21T10:35:08;8.43;;;7.55;;
73276;SDS011;61501;43.316;5.372;2023-05-21T10:37:35;7.72;;;6.93;;
73276;SDS011;61501;43.316;5.372;2023-05-21T10:40:01;12.05;;;7.63;;
73276;SDS011;61501;43.316;5.372;2023-05-21T10:59:02;7.60;;;6.80;;
73276;SDS011;61501;43.316;5.372;2023-05-21T11:01:46;7.40;;;6.55;;
73276;SDS011;61501;43.316;5.372;2023-05-21T11:04:14;6.13;;;4.90;;
73276;SDS011;61501;43.316;5.372;2023-05-21T11:06:45;7.53;;;5.47;;
73276;SDS011;61501;43.316;5.372;2023-05-21T11:09:12;5.97;;;5.38;;
73276;SDS011;61501;43.316;5.372;2023-05-21T11:11:42;5.68;;;5.07;;
73276;SDS011;61501;43.316;5.372;2023-05-21T11:17:12;7.28;;;6.45;;
73276;SDS011;61501;43.316;5.372;2023-05-21T11:19:44;5.13;;;4.63;;
73276;SDS011;61501;43.316;5.372;2023-05-21T11:22:21;7.38;;;5.40;;
73276;SDS011;61501;43.316;5.372;2023-05-21T11:24:48;6.57;;;5.97;;
73276;SDS011;61501;43.316;5.372;2023-05-21T11:30:09;5.60;;;5.05;;
73276;SDS011;61501;43.316;5.372;2023-05-21T11:33:16;6.68;;;5.18;;
73276;SDS011;61501;43.316;5.372;2023-05-21T11:38:10;5.18;;;4.65;;
73276;SDS011;61501;43.316;5.372;2023-05-21T11:40:35;5.25;;;4.75;;
73276;SDS011;61501;43.316;5.372;2023-05-21T11:43:01;6.35;;;4.60;;
73276;SDS011;61501;43.316;5.372;2023-05-21T11:45:29;5.63;;;4.68;;
73276;SDS011;61501;43.316;5.372;2023-05-21T11:47:56;5.57;;;5.07;;
73276;SDS011;61501;43.316;5.372;2023-05-21T11:50:22;6.50;;;4.70;;
73276;SDS011;61501;43.316;5.372;2023-05-21T11:52:48;5.30;;;4.65;;
73276;SDS011;61501;43.316;5.372;2023-05-21T11:55:14;5.05;;;4.55;;
73276;SDS011;61501;43.316;5.372;2023-05-21T11:57:40;5.00;;;4.60;;
73276;SDS011;61501;43.316;5.372;2023-05-21T12:00:12;4.85;;;4.05;;
73276;SDS011;61501;43.316;5.372;2023-05-21T12:02:46;5.97;;;3.45;;
73276;SDS011;61501;43.316;5.372;2023-05-21T12:05:14;4.18;;;3.78;;
73276;SDS011;61501;43.316;5.372;2023-05-21T12:07:40;4.13;;;3.72;;
73276;SDS011;61501;43.316;5.372;2023-05-21T12:10:06;4.15;;;3.75;;
73276;SDS011;61501;43.316;5.372;2023-05-21T12:12:32;4.00;;;3.60;;
73276;SDS011;61501;43.316;5.372;2023-05-21T12:14:58;4.25;;;3.72;;
73276;SDS011;61501;43.316;5.372;2023-05-21T12:17:26;4.93;;;4.53;;
73276;SDS011;61501;43.316;5.372;2023-05-21T12:19:53;4.15;;;3.75;;
73276;SDS011;61501;43.316;5.372;2023-05-21T12:22:19;4.28;;;3.88;;
73276;SDS011;61501;43.316;5.372;2023-05-21T12:24:45;6.15;;;3.60;;
73276;SDS011;61501;43.316;5.372;2023-05-21T12:27:12;4.47;;;4.00;;
73276;SDS011;61501;43.316;5.372;2023-05-21T12:29:44;5.90;;;3.83;;
73276;SDS011;61501;43.316;5.372;2023-05-21T12:32:13;4.43;;;4.10;;
73276;SDS011;61501;43.316;5.372;2023-05-21T12:34:41;6.38;;;4.28;;
73276;SDS011;61501;43.316;5.372;2023-05-21T12:37:11;5.78;;;4.10;;
73276;SDS011;61501;43.316;5.372;2023-05-21T12:39:41;4.82;;;3.78;;
73276;SDS011;61501;43.316;5.372;2023-05-21T12:42:11;6.50;;;4.78;;
73276;SDS011;61501;43.316;5.372;2023-05-21T12:44:38;5.13;;;4.57;;
73276;SDS011;61501;43.316;5.372;2023-05-21T12:47:07;5.13;;;4.72;;
73276;SDS011;61501;43.316;5.372;2023-05-21T12:49:41;5.93;;;4.85;;
73276;SDS011;61501;43.316;5.372;2023-05-21T12:52:11;5.68;;;5.13;;
73276;SDS011;61501;43.316;5.372;2023-05-21T12:54:39;5.97;;;5.05;;
73276;SDS011;61501;43.316;5.372;2023-05-21T12:57:12;5.82;;;5.32;;
73276;SDS011;61501;43.316;5.372;2023-05-21T13:02:26;5.88;;;5.30;;
73276;SDS011;61501;43.316;5.372;2023-05-21T13:05:00;5.43;;;4.90;;
73276;SDS011;61501;43.316;5.372;2023-05-21T13:07:29;5.40;;;4.95;;
73276;SDS011;61501;43.316;5.372;2023-05-21T13:09:56;6.88;;;4.93;;
73276;SDS011;61501;43.316;5.372;2023-05-21T13:12:23;5.85;;;5.28;;
73276;SDS011;61501;43.316;5.372;2023-05-21T13:14:50;6.88;;;6.20;;
73276;SDS011;61501;43.316;5.372;2023-05-21T13:17:21;7.60;;;6.05;;
73276;SDS011;61501;43.316;5.372;2023-05-21T13:22:37;7.28;;;6.63;;
73276;SDS011;61501;43.316;5.372;2023-05-21T13:25:08;7.00;;;6.40;;
73276;SDS011;61501;43.316;5.372;2023-05-21T13:27:39;8.63;;;7.03;;
73276;SDS011;61501;43.316;5.372;2023-05-21T13:30:06;8.95;;;8.20;;
73276;SDS011;61501;43.316;5.372;2023-05-21T13:32:32;9.07;;;8.18;;
73276;SDS011;61501;43.316;5.372;2023-05-21T13:34:58;10.27;;;9.38;;
73276;SDS011;61501;43.316;5.372;2023-05-21T13:37:24;9.52;;;8.75;;
73276;SDS011;61501;43.316;5.372;2023-05-21T13:39:50;10.52;;;9.52;;
73276;SDS011;61501;43.316;5.372;2023-05-21T13:42:15;10.60;;;9.70;;
73276;SDS011;61501;43.316;5.372;2023-05-21T13:44:41;11.05;;;10.20;;
73276;SDS011;61501;43.316;5.372;2023-05-21T13:47:07;11.90;;;10.90;;
73276;SDS011;61501;43.316;5.372;2023-05-21T13:49:34;13.57;;;12.27;;
73276;SDS011;61501;43.316;5.372;2023-05-21T13:52:00;13.65;;;12.65;;
73276;SDS011;61501;43.316;5.372;2023-05-21T13:54:27;14.07;;;12.85;;
73276;SDS011;61501;43.316;5.372;2023-05-21T13:56:53;13.18;;;12.18;;
73276;SDS011;61501;43.316;5.372;2023-05-21T13:59:19;12.98;;;11.82;;
73276;SDS011;61501;43.316;5.372;2023-05-21T14:01:45;12.80;;;11.80;;
73276;SDS011;61501;43.316;5.372;2023-05-21T14:04:12;12.32;;;11.10;;
73276;SDS011;61501;43.316;5.372;2023-05-21T14:06:38;11.43;;;10.43;;
73276;SDS011;61501;43.316;5.372;2023-05-21T14:09:05;11.38;;;10.52;;
73276;SDS011;61501;43.316;5.372;2023-05-21T14:11:31;11.75;;;10.75;;
73276;SDS011;61501;43.316;5.372;2023-05-21T14:13:56;11.65;;;10.77;;
73276;SDS011;61501;43.316;5.372;2023-05-21T14:16:22;11.52;;;10.52;;
73276;SDS011;61501;43.316;5.372;2023-05-21T14:18:51;11.05;;;10.05;;
73276;SDS011;61501;43.316;5.372;2023-05-21T14:21:17;12.02;;;10.85;;
73276;SDS011;61501;43.316;5.372;2023-05-21T14:23:43;12.23;;;11.20;;
73276;SDS011;61501;43.316;5.372;2023-05-21T14:26:08;12.80;;;11.70;;
73276;SDS011;61501;43.316;5.372;2023-05-21T14:28:34;13.02;;;11.90;;
73276;SDS011;61501;43.316;5.372;2023-05-21T14:31:00;10.90;;;10.00;;
73276;SDS011;61501;43.316;5.372;2023-05-21T14:33:25;11.82;;;10.82;;
73276;SDS011;61501;43.316;5.372;2023-05-21T14:35:51;12.20;;;11.20;;
73276;SDS011;61501;43.316;5.372;2023-05-21T14:38:16;10.88;;;10.02;;
73276;SDS011;61501;43.316;5.372;2023-05-21T14:40:42;11.40;;;10.32;;
73276;SDS011;61501;43.316;5.372;2023-05-21T14:43:08;11.32;;;10.38;;
73276;SDS011;61501;43.316;5.372;2023-05-21T14:45:33;12.73;;;11.60;;
73276;SDS011;61501;43.316;5.372;2023-05-21T14:48:00;12.93;;;11.82;;
73276;SDS011;61501;43.316;5.372;2023-05-21T14:50:27;13.68;;;12.48;;
73276;SDS011;61501;43.316;5.372;2023-05-21T14:52:52;12.48;;;11.30;;
73276;SDS011;61501;43.316;5.372;2023-05-21T14:55:18;12.18;;;11.18;;
73276;SDS011;61501;43.316;5.372;2023-05-21T14:57:46;11.57;;;10.60;;
73276;SDS011;61501;43.316;5.372;2023-05-21T15:00:12;10.35;;;9.55;;
73276;SDS011;61501;43.316;5.372;2023-05-21T15:02:38;10.77;;;9.73;;
73276;SDS011;61501;43.316;5.372;2023-05-21T15:05:04;10.13;;;9.18;;
73276;SDS011;61501;43.316;5.372;2023-05-21T15:07:30;10.63;;;9.73;;
73276;SDS011;61501;43.316;5.372;2023-05-21T15:09:56;12.70;;;11.52;;
73276;SDS011;61501;43.316;5.372;2023-05-21T15:12:21;13.07;;;12.07;;
73276;SDS011;61501;43.316;5.372;2023-05-21T15:14:47;13.63;;;12.52;;
73276;SDS011;61501;43.316;5.372;2023-05-21T15:17:13;12.20;;;11.27;;
73276;SDS011;61501;43.316;5.372;2023-05-21T15:19:38;13.55;;;12.55;;
73276;SDS011;61501;43.316;5.372;2023-05-21T15:22:04;14.23;;;12.98;;
73276;SDS011;61501;43.316;5.372;2023-05-21T15:24:30;13.98;;;12.88;;
73276;SDS011;61501;43.316;5.372;2023-05-21T15:26:55;12.55;;;11.52;;
73276;SDS011;61501;43.316;5.372;2023-05-21T15:29:21;14.10;;;12.90;;
73276;SDS011;61501;43.316;5.372;2023-05-21T15:31:47;13.70;;;12.57;;
73276;SDS011;61501;43.316;5.372;2023-05-21T15:34:12;13.75;;;12.55;;
73276;SDS011;61501;43.316;5.372;2023-05-21T15:36:38;13.02;;;11.93;;
73276;SDS011;61501;43.316;5.372;2023-05-21T15:39:03;12.65;;;11.60;;
73276;SDS011;61501;43.316;5.372;2023-05-21T15:41:33;12.63;;;11.52;;
73276;SDS011;61501;43.316;5.372;2023-05-21T15:44:00;13.05;;;11.93;;
73276;SDS011;61501;43.316;5.372;2023-05-21T15:46:25;14.18;;;11.68;;
73276;SDS011;61501;43.316;5.372;2023-05-21T15:48:51;13.52;;;12.32;;